Vakasa — CFN5521 — position and weather

sailwx.info

Track history (hours):
 
Tides and Currents Weather Stations Pressure Air Temp Water Temp Dewpoint Dewpoint Depression Visibility Wind Speed Wind Dir Waves Ship Positions

Vakasa

Last reported at 2014-May-11 22:14 UTC. Time now 2014-Jul-30 21:16 UTC.
Position N 47°16' W 122°26'.
Warning: this ship's position is months out of date.

Length 13 m.

Type: Sailing vessel. MMSI: 316019262.

Date/timePositionNaut miles runAvg speedWind from/ knotsBaromVisibWave heightAir tempDewpointWater temp
2014-May-11 22:14N 47°16' W 122°26'5 6.7
2014-May-11 21:33N 47°20' W 122°25'7 7.3
2014-May-11 20:33N 47°27' W 122°23'8 7.8
2014-May-11 19:32N 47°35' W 122°27'8 7.7
2014-May-11 18:33N 47°42' W 122°28'8 7.7
2014-May-11 17:33N 47°50' W 122°29'7 6.7
2014-May-11 16:33N 47°56' W 122°34'36 1.5
2014-May-10 17:22N 48°31' W 122°46'7 8.0
2014-May-10 16:26N 48°38' W 122°45'8 7.1
2014-May-10 15:22N 48°45' W 122°50'9 0.6
2014-May-10 00:18N 48°51' W 122°60'9 4.7
2014-May-09 22:27N 48°59' W 123°06'6 7.3
2014-May-09 21:42N 49°01' W 123°14'  
Track history (hours):
 
Tides and Currents Weather Stations Pressure Air Temp Water Temp Dewpoint Dewpoint Depression Visibility Wind Speed Wind Dir Waves Ship Positions

Vakasa

Last reported at 2014-May-11 22:14 UTC. Time now 2014-Jul-30 21:16 UTC.
Position N 47°16' W 122°26'.
Warning: this ship's position is months out of date.

Length 13 m.

Type: Sailing vessel. MMSI: 316019262.

Date/timePositionNaut miles runAvg speedWind from/ knotsBaromVisibWave heightAir tempDewpointWater temp
2014-May-11 22:14N 47°16' W 122°26'5 6.7
2014-May-11 21:33N 47°20' W 122°25'7 7.3
2014-May-11 20:33N 47°27' W 122°23'8 7.8
2014-May-11 19:32N 47°35' W 122°27'8 7.7
2014-May-11 18:33N 47°42' W 122°28'8 7.7
2014-May-11 17:33N 47°50' W 122°29'7 6.7
2014-May-11 16:33N 47°56' W 122°34'36 1.5
2014-May-10 17:22N 48°31' W 122°46'7 8.0
2014-May-10 16:26N 48°38' W 122°45'8 7.1
2014-May-10 15:22N 48°45' W 122°50'9 0.6
2014-May-10 00:18N 48°51' W 122°60'9 4.7
2014-May-09 22:27N 48°59' W 123°06'6 7.3
2014-May-09 21:42N 49°01' W 123°14'  

Dump ship's entire track history